sensor_id;sensor_type;location;lat;lon;timestamp;pressure;altitude;pressure_sealevel;temperature;humidity
36798;BME280;22748;8.426;99.512;2023-05-16T00:01:34;100833.25;;;31.01;62.42
36798;BME280;22748;8.426;99.512;2023-05-16T00:04:04;100849.22;;;31.02;62.55
36798;BME280;22748;8.426;99.512;2023-05-16T00:06:34;100843.00;;;31.02;62.89
36798;BME280;22748;8.426;99.512;2023-05-16T00:09:17;100843.00;;;31.02;63.34
36798;BME280;22748;8.426;99.512;2023-05-16T00:11:47;100856.66;;;31.07;62.86
36798;BME280;22748;8.426;99.512;2023-05-16T00:14:18;100846.28;;;31.10;62.99
36798;BME280;22748;8.426;99.512;2023-05-16T00:16:50;100851.00;;;31.15;63.33
36798;BME280;22748;8.426;99.512;2023-05-16T00:19:24;100850.56;;;31.18;62.90
36798;BME280;22748;8.426;99.512;2023-05-16T00:21:57;100841.22;;;31.21;62.77
36798;BME280;22748;8.426;99.512;2023-05-16T00:24:28;100844.13;;;31.19;63.31
36798;BME280;22748;8.426;99.512;2023-05-16T00:26:57;100844.34;;;31.17;63.11
36798;BME280;22748;8.426;99.512;2023-05-16T00:29:30;100846.97;;;31.24;63.09
36798;BME280;22748;8.426;99.512;2023-05-16T00:32:04;100848.25;;;31.22;62.96
36798;BME280;22748;8.426;99.512;2023-05-16T00:34:40;100849.69;;;31.24;63.00
36798;BME280;22748;8.426;99.512;2023-05-16T00:37:23;100851.97;;;31.27;63.11
36798;BME280;22748;8.426;99.512;2023-05-16T00:40:01;100863.13;;;31.31;63.02
36798;BME280;22748;8.426;99.512;2023-05-16T00:42:31;100862.25;;;31.37;63.10
36798;BME280;22748;8.426;99.512;2023-05-16T00:45:02;100863.50;;;31.34;62.99
36798;BME280;22748;8.426;99.512;2023-05-16T00:47:34;100866.06;;;31.29;63.08
36798;BME280;22748;8.426;99.512;2023-05-16T00:50:11;100869.53;;;31.36;62.99
36798;BME280;22748;8.426;99.512;2023-05-16T00:52:48;100878.88;;;31.34;63.45
36798;BME280;22748;8.426;99.512;2023-05-16T00:55:19;100885.50;;;31.38;63.49
36798;BME280;22748;8.426;99.512;2023-05-16T00:57:57;100894.81;;;31.42;63.50
36798;BME280;22748;8.426;99.512;2023-05-16T01:00:34;100893.13;;;31.48;63.22
36798;BME280;22748;8.426;99.512;2023-05-16T01:03:38;100903.25;;;31.52;63.24
36798;BME280;22748;8.426;99.512;2023-05-16T01:06:14;100903.19;;;31.59;62.91
36798;BME280;22748;8.426;99.512;2023-05-16T01:08:48;100912.09;;;31.66;62.69
36798;BME280;22748;8.426;99.512;2023-05-16T01:11:26;100915.34;;;31.68;62.40
36798;BME280;22748;8.426;99.512;2023-05-16T01:14:08;100920.34;;;31.71;62.52
36798;BME280;22748;8.426;99.512;2023-05-16T01:16:53;100916.22;;;31.87;62.02
36798;BME280;22748;8.426;99.512;2023-05-16T01:19:55;100917.25;;;32.11;62.05
36798;BME280;22748;8.426;99.512;2023-05-16T01:22:45;100917.28;;;32.30;61.36
36798;BME280;22748;8.426;99.512;2023-05-16T01:25:55;100915.78;;;32.34;61.43
36798;BME280;22748;8.426;99.512;2023-05-16T01:28:42;100925.66;;;32.40;60.82
36798;BME280;22748;8.426;99.512;2023-05-16T01:31:24;100936.06;;;32.43;61.19
36798;BME280;22748;8.426;99.512;2023-05-16T01:34:01;100936.47;;;32.40;61.01
36798;BME280;22748;8.426;99.512;2023-05-16T01:36:49;100932.88;;;32.46;60.98
36798;BME280;22748;8.426;99.512;2023-05-16T01:39:29;100940.13;;;32.52;60.80
36798;BME280;22748;8.426;99.512;2023-05-16T01:42:04;100942.06;;;32.64;60.10
36798;BME280;22748;8.426;99.512;2023-05-16T01:44:57;100945.06;;;32.74;59.54
36798;BME280;22748;8.426;99.512;2023-05-16T01:47:50;100945.19;;;32.79;59.24
36798;BME280;22748;8.426;99.512;2023-05-16T01:50:42;100948.25;;;32.71;59.40
36798;BME280;22748;8.426;99.512;2023-05-16T01:53:24;100961.25;;;32.62;59.70
36798;BME280;22748;8.426;99.512;2023-05-16T01:56:14;100954.69;;;32.51;59.85
36798;BME280;22748;8.426;99.512;2023-05-16T01:58:53;100958.03;;;32.47;59.98
36798;BME280;22748;8.426;99.512;2023-05-16T02:04:42;100971.41;;;32.42;59.95
36798;BME280;22748;8.426;99.512;2023-05-16T02:07:20;100977.19;;;32.45;59.56
36798;BME280;22748;8.426;99.512;2023-05-16T02:09:52;100980.19;;;32.37;59.58
36798;BME280;22748;8.426;99.512;2023-05-16T02:12:23;100978.56;;;32.36;59.65
36798;BME280;22748;8.426;99.512;2023-05-16T02:14:59;100975.81;;;32.17;60.04
36798;BME280;22748;8.426;99.512;2023-05-16T02:17:36;100979.53;;;32.23;59.80
36798;BME280;22748;8.426;99.512;2023-05-16T02:20:09;100978.25;;;32.26;60.04
36798;BME280;22748;8.426;99.512;2023-05-16T02:22:40;100973.59;;;32.33;59.15
36798;BME280;22748;8.426;99.512;2023-05-16T02:25:30;100976.91;;;32.35;59.38
36798;BME280;22748;8.426;99.512;2023-05-16T02:28:07;100981.84;;;32.38;58.91
36798;BME280;22748;8.426;99.512;2023-05-16T02:30:45;100979.31;;;32.43;58.32
36798;BME280;22748;8.426;99.512;2023-05-16T02:33:19;100982.97;;;32.49;58.53
36798;BME280;22748;8.426;99.512;2023-05-16T02:36:05;100974.25;;;32.53;58.93
36798;BME280;22748;8.426;99.512;2023-05-16T02:38:46;100981.22;;;32.61;58.94
36798;BME280;22748;8.426;99.512;2023-05-16T02:41:21;100973.47;;;32.65;58.76
36798;BME280;22748;8.426;99.512;2023-05-16T02:44:01;100974.28;;;32.65;58.61
36798;BME280;22748;8.426;99.512;2023-05-16T02:46:39;100974.28;;;32.65;58.34
36798;BME280;22748;8.426;99.512;2023-05-16T02:49:19;100967.59;;;32.68;58.32
36798;BME280;22748;8.426;99.512;2023-05-16T02:51:51;100968.81;;;32.72;58.14
36798;BME280;22748;8.426;99.512;2023-05-16T02:54:22;100964.13;;;32.79;58.40
36798;BME280;22748;8.426;99.512;2023-05-16T02:56:53;100968.03;;;32.83;57.95
36798;BME280;22748;8.426;99.512;2023-05-16T02:59:43;100970.91;;;32.88;57.50
36798;BME280;22748;8.426;99.512;2023-05-16T03:02:13;100967.59;;;32.86;57.80
36798;BME280;22748;8.426;99.512;2023-05-16T03:04:44;100962.19;;;32.86;57.74
36798;BME280;22748;8.426;99.512;2023-05-16T03:07:16;100963.81;;;32.87;57.59
36798;BME280;22748;8.426;99.512;2023-05-16T03:09:47;100952.53;;;32.90;57.72
36798;BME280;22748;8.426;99.512;2023-05-16T03:12:28;100960.66;;;32.90;57.58
36798;BME280;22748;8.426;99.512;2023-05-16T03:15:05;100958.41;;;32.87;55.14
36798;BME280;22748;8.426;99.512;2023-05-16T03:17:37;100948.41;;;32.88;55.31
36798;BME280;22748;8.426;99.512;2023-05-16T03:20:30;100952.53;;;32.90;55.82
36798;BME280;22748;8.426;99.512;2023-05-16T03:23:14;100939.00;;;32.90;56.71
36798;BME280;22748;8.426;99.512;2023-05-16T03:25:45;100931.28;;;32.94;56.22
36798;BME280;22748;8.426;99.512;2023-05-16T03:28:17;100931.66;;;32.97;56.15
36798;BME280;22748;8.426;99.512;2023-05-16T03:30:56;100928.03;;;33.04;56.17
36798;BME280;22748;8.426;99.512;2023-05-16T03:33:27;100924.41;;;33.10;55.87
36798;BME280;22748;8.426;99.512;2023-05-16T03:35:59;100922.28;;;33.12;55.72
36798;BME280;22748;8.426;99.512;2023-05-16T03:38:37;100925.59;;;33.14;54.73
36798;BME280;22748;8.426;99.512;2023-05-16T03:41:07;100921.38;;;33.18;54.12
36798;BME280;22748;8.426;99.512;2023-05-16T03:43:39;100918.44;;;33.19;54.55
36798;BME280;22748;8.426;99.512;2023-05-16T03:46:10;100908.56;;;33.25;54.43
36798;BME280;22748;8.426;99.512;2023-05-16T03:48:47;100910.00;;;33.28;54.15
36798;BME280;22748;8.426;99.512;2023-05-16T03:51:24;100908.31;;;33.15;54.20
36798;BME280;22748;8.426;99.512;2023-05-16T03:54:02;100902.44;;;33.18;54.30
36798;BME280;22748;8.426;99.512;2023-05-16T03:56:36;100901.28;;;33.26;54.25
36798;BME280;22748;8.426;99.512;2023-05-16T03:59:11;100897.41;;;33.33;54.46
36798;BME280;22748;8.426;99.512;2023-05-16T04:01:45;100892.81;;;33.34;54.19
36798;BME280;22748;8.426;99.512;2023-05-16T04:04:14;100887.66;;;33.32;54.60
36798;BME280;22748;8.426;99.512;2023-05-16T04:06:51;100880.72;;;33.36;53.67
36798;BME280;22748;8.426;99.512;2023-05-16T04:09:26;100878.59;;;33.38;53.55
36798;BME280;22748;8.426;99.512;2023-05-16T04:11:58;100874.34;;;33.43;53.14
36798;BME280;22748;8.426;99.512;2023-05-16T04:14:37;100871.06;;;33.40;53.21
36798;BME280;22748;8.426;99.512;2023-05-16T04:17:09;100861.88;;;33.42;53.21
36798;BME280;22748;8.426;99.512;2023-05-16T04:19:40;100859.16;;;33.42;53.09
36798;BME280;22748;8.426;99.512;2023-05-16T04:22:20;100850.91;;;33.48;52.70
36798;BME280;22748;8.426;99.512;2023-05-16T04:25:06;100850.13;;;33.59;52.85
36798;BME280;22748;8.426;99.512;2023-05-16T04:27:38;100850.25;;;33.65;53.01
36798;BME280;22748;8.426;99.512;2023-05-16T04:30:24;100845.53;;;33.60;53.09
36798;BME280;22748;8.426;99.512;2023-05-16T04:32:56;100840.69;;;33.62;52.42
36798;BME280;22748;8.426;99.512;2023-05-16T04:35:29;100836.13;;;33.63;52.64
36798;BME280;22748;8.426;99.512;2023-05-16T04:38:00;100836.00;;;33.69;52.20
36798;BME280;22748;8.426;99.512;2023-05-16T04:40:35;100827.88;;;33.69;52.72
36798;BME280;22748;8.426;99.512;2023-05-16T04:43:09;100821.88;;;33.67;52.55
36798;BME280;22748;8.426;99.512;2023-05-16T04:45:52;100819.88;;;33.63;52.06
36798;BME280;22748;8.426;99.512;2023-05-16T04:48:26;100816.31;;;33.62;52.49
36798;BME280;22748;8.426;99.512;2023-05-16T04:50:57;100807.25;;;33.68;51.58
36798;BME280;22748;8.426;99.512;2023-05-16T04:53:27;100803.97;;;33.78;50.64
36798;BME280;22748;8.426;99.512;2023-05-16T04:56:03;100797.91;;;33.88;50.44
36798;BME280;22748;8.426;99.512;2023-05-16T04:58:33;100790.47;;;33.95;50.88
36798;BME280;22748;8.426;99.512;2023-05-16T05:01:09;100779.75;;;34.00;50.80
36798;BME280;22748;8.426;99.512;2023-05-16T05:03:46;100779.25;;;34.03;51.07
36798;BME280;22748;8.426;99.512;2023-05-16T05:06:15;100767.03;;;34.00;50.97
36798;BME280;22748;8.426;99.512;2023-05-16T05:08:50;100767.38;;;34.04;50.29
36798;BME280;22748;8.426;99.512;2023-05-16T05:11:26;100764.75;;;34.09;50.53
36798;BME280;22748;8.426;99.512;2023-05-16T05:13:58;100761.56;;;34.12;50.59
36798;BME280;22748;8.426;99.512;2023-05-16T05:16:34;100757.81;;;34.13;49.86
36798;BME280;22748;8.426;99.512;2023-05-16T05:19:05;100749.53;;;34.20;49.99
36798;BME280;22748;8.426;99.512;2023-05-16T05:21:36;100744.47;;;34.24;50.55
36798;BME280;22748;8.426;99.512;2023-05-16T05:24:10;100739.03;;;34.24;50.19
36798;BME280;22748;8.426;99.512;2023-05-16T05:26:43;100744.47;;;34.24;50.58
36798;BME280;22748;8.426;99.512;2023-05-16T05:29:14;100734.34;;;34.19;50.68
36798;BME280;22748;8.426;99.512;2023-05-16T05:31:45;100735.41;;;34.18;50.39
36798;BME280;22748;8.426;99.512;2023-05-16T05:34:15;100730.34;;;34.21;50.19
36798;BME280;22748;8.426;99.512;2023-05-16T05:36:45;100724.91;;;34.21;49.77
36798;BME280;22748;8.426;99.512;2023-05-16T05:39:18;100711.59;;;34.20;50.14
36798;BME280;22748;8.426;99.512;2023-05-16T05:41:52;100713.56;;;34.25;50.00
36798;BME280;22748;8.426;99.512;2023-05-16T05:44:28;100703.66;;;34.30;49.49
36798;BME280;22748;8.426;99.512;2023-05-16T05:47:00;100699.13;;;34.36;50.04
36798;BME280;22748;8.426;99.512;2023-05-16T05:49:31;100697.09;;;34.43;49.10
36798;BME280;22748;8.426;99.512;2023-05-16T05:52:03;100697.16;;;34.48;48.73
36798;BME280;22748;8.426;99.512;2023-05-16T05:54:34;100686.97;;;34.55;48.52
36798;BME280;22748;8.426;99.512;2023-05-16T05:57:13;100684.53;;;34.54;48.81
36798;BME280;22748;8.426;99.512;2023-05-16T05:59:44;100677.22;;;34.54;48.71
36798;BME280;22748;8.426;99.512;2023-05-16T06:02:14;100669.06;;;34.54;49.12
36798;BME280;22748;8.426;99.512;2023-05-16T06:04:51;100673.81;;;34.47;48.72
36798;BME280;22748;8.426;99.512;2023-05-16T06:07:20;100654.44;;;34.55;48.50
36798;BME280;22748;8.426;99.512;2023-05-16T06:09:52;100650.34;;;34.70;48.00
36798;BME280;22748;8.426;99.512;2023-05-16T06:12:24;100648.28;;;34.77;47.69
36798;BME280;22748;8.426;99.512;2023-05-16T06:15:07;100644.56;;;34.83;46.85
36798;BME280;22748;8.426;99.512;2023-05-16T06:17:41;100633.47;;;34.85;47.27
36798;BME280;22748;8.426;99.512;2023-05-16T06:20:11;100631.06;;;34.88;47.30
36798;BME280;22748;8.426;99.512;2023-05-16T06:23:01;100624.88;;;34.93;47.47
36798;BME280;22748;8.426;99.512;2023-05-16T06:25:32;100621.53;;;34.86;47.35
36798;BME280;22748;8.426;99.512;2023-05-16T06:28:05;100619.97;;;34.90;47.54
36798;BME280;22748;8.426;99.512;2023-05-16T06:30:36;100621.88;;;34.89;48.12
36798;BME280;22748;8.426;99.512;2023-05-16T06:33:07;100613.97;;;34.88;48.19
36798;BME280;22748;8.426;99.512;2023-05-16T06:35:38;100606.94;;;34.87;47.67
36798;BME280;22748;8.426;99.512;2023-05-16T06:38:20;100602.88;;;34.89;47.50
36798;BME280;22748;8.426;99.512;2023-05-16T06:41:01;100593.66;;;34.90;47.49
36798;BME280;22748;8.426;99.512;2023-05-16T06:43:35;100590.94;;;34.90;47.14
36798;BME280;22748;8.426;99.512;2023-05-16T06:46:10;100584.50;;;34.96;47.20
36798;BME280;22748;8.426;99.512;2023-05-16T06:48:41;100574.47;;;34.97;46.24
36798;BME280;22748;8.426;99.512;2023-05-16T06:51:23;100567.22;;;35.02;46.12
36798;BME280;22748;8.426;99.512;2023-05-16T06:53:54;100562.66;;;35.08;46.42
36798;BME280;22748;8.426;99.512;2023-05-16T06:56:25;100564.09;;;35.11;46.77
36798;BME280;22748;8.426;99.512;2023-05-16T06:59:00;100560.28;;;35.12;46.67
36798;BME280;22748;8.426;99.512;2023-05-16T07:01:32;100554.84;;;35.12;46.82
36798;BME280;22748;8.426;99.512;2023-05-16T07:04:01;100553.72;;;35.08;46.94
36798;BME280;22748;8.426;99.512;2023-05-16T07:06:32;100553.22;;;35.11;46.38
36798;BME280;22748;8.426;99.512;2023-05-16T07:09:03;100542.38;;;35.11;46.74
36798;BME280;22748;8.426;99.512;2023-05-16T07:11:33;100541.78;;;35.09;46.84
36798;BME280;22748;8.426;99.512;2023-05-16T07:14:05;100531.69;;;35.04;47.32
36798;BME280;22748;8.426;99.512;2023-05-16T07:16:36;100521.81;;;35.15;46.28
36798;BME280;22748;8.426;99.512;2023-05-16T07:19:10;100515.66;;;35.25;46.04
36798;BME280;22748;8.426;99.512;2023-05-16T07:21:40;100516.56;;;35.30;45.99
36798;BME280;22748;8.426;99.512;2023-05-16T07:24:11;100513.31;;;35.33;46.50
36798;BME280;22748;8.426;99.512;2023-05-16T07:26:43;100514.94;;;35.34;46.79
36798;BME280;22748;8.426;99.512;2023-05-16T07:29:17;100505.97;;;35.34;46.81
36798;BME280;22748;8.426;99.512;2023-05-16T07:31:53;100509.50;;;35.34;46.70
36798;BME280;22748;8.426;99.512;2023-05-16T07:34:23;100503.25;;;35.34;46.35
36798;BME280;22748;8.426;99.512;2023-05-16T07:36:52;100500.31;;;35.35;46.35
36798;BME280;22748;8.426;99.512;2023-05-16T07:39:25;100505.53;;;35.42;46.03
36798;BME280;22748;8.426;99.512;2023-05-16T07:42:02;100500.41;;;35.46;45.80
36798;BME280;22748;8.426;99.512;2023-05-16T07:44:35;100496.78;;;35.35;46.31
36798;BME280;22748;8.426;99.512;2023-05-16T07:47:06;100488.63;;;35.35;46.52
36798;BME280;22748;8.426;99.512;2023-05-16T07:49:36;100482.31;;;35.29;46.75
36798;BME280;22748;8.426;99.512;2023-05-16T07:52:08;100491.19;;;35.19;46.69
36798;BME280;22748;8.426;99.512;2023-05-16T07:54:38;100479.59;;;35.29;46.16
36798;BME280;22748;8.426;99.512;2023-05-16T07:57:14;100469.84;;;35.28;46.77
36798;BME280;22748;8.426;99.512;2023-05-16T07:59:46;100466.06;;;35.34;46.52
36798;BME280;22748;8.426;99.512;2023-05-16T08:02:18;100469.09;;;35.38;46.69
36798;BME280;22748;8.426;99.512;2023-05-16T08:04:53;100471.50;;;35.34;46.83
36798;BME280;22748;8.426;99.512;2023-05-16T08:07:23;100471.22;;;35.31;46.97
36798;BME280;22748;8.426;99.512;2023-05-16T08:09:54;100474.50;;;35.33;46.97
36798;BME280;22748;8.426;99.512;2023-05-16T08:12:25;100479.91;;;35.33;46.82
36798;BME280;22748;8.426;99.512;2023-05-16T08:14:57;100482.88;;;35.31;46.87
36798;BME280;22748;8.426;99.512;2023-05-16T08:17:28;100486.94;;;35.29;47.11
36798;BME280;22748;8.426;99.512;2023-05-16T08:19:58;100481.75;;;35.27;47.06
36798;BME280;22748;8.426;99.512;2023-05-16T08:22:34;100475.75;;;35.25;47.04
36798;BME280;22748;8.426;99.512;2023-05-16T08:25:04;100471.22;;;35.31;46.54
36798;BME280;22748;8.426;99.512;2023-05-16T08:27:35;100456.84;;;35.35;46.75
36798;BME280;22748;8.426;99.512;2023-05-16T08:30:08;100459.88;;;35.39;46.65
36798;BME280;22748;8.426;99.512;2023-05-16T08:32:39;100459.41;;;35.47;47.08
36798;BME280;22748;8.426;99.512;2023-05-16T08:35:10;100463.78;;;35.53;47.45
36798;BME280;22748;8.426;99.512;2023-05-16T08:37:41;100464.09;;;35.57;47.87
36798;BME280;22748;8.426;99.512;2023-05-16T08:40:12;100473.38;;;35.61;48.42
36798;BME280;22748;8.426;99.512;2023-05-16T08:42:42;100473.63;;;35.59;48.57
36798;BME280;22748;8.426;99.512;2023-05-16T08:45:17;100481.22;;;35.57;48.51
36798;BME280;22748;8.426;99.512;2023-05-16T08:47:49;100477.94;;;35.55;48.11
36798;BME280;22748;8.426;99.512;2023-05-16T08:50:24;100481.13;;;35.47;48.06
36798;BME280;22748;8.426;99.512;2023-05-16T08:52:54;100489.53;;;35.46;48.14
36798;BME280;22748;8.426;99.512;2023-05-16T08:55:24;100488.41;;;35.41;47.76
36798;BME280;22748;8.426;99.512;2023-05-16T09:00:45;100493.72;;;35.04;48.18
36798;BME280;22748;8.426;99.512;2023-05-16T09:03:17;100500.44;;;35.01;48.53
36798;BME280;22748;8.426;99.512;2023-05-16T09:05:51;100528.66;;;35.00;48.95
36798;BME280;22748;8.426;99.512;2023-05-16T09:08:22;100541.41;;;35.00;49.41
36798;BME280;22748;8.426;99.512;2023-05-16T09:10:54;100543.25;;;34.94;49.63
36798;BME280;22748;8.426;99.512;2023-05-16T09:13:26;100536.56;;;34.80;50.07
36798;BME280;22748;8.426;99.512;2023-05-16T09:16:14;100526.56;;;34.64;50.39
36798;BME280;22748;8.426;99.512;2023-05-16T09:18:52;100519.66;;;34.56;50.63
36798;BME280;22748;8.426;99.512;2023-05-16T09:21:28;100516.72;;;34.40;50.55
36798;BME280;22748;8.426;99.512;2023-05-16T09:24:03;100492.19;;;34.30;51.09
36798;BME280;22748;8.426;99.512;2023-05-16T09:26:46;100483.88;;;34.37;51.25
36798;BME280;22748;8.426;99.512;2023-05-16T09:29:18;100486.09;;;34.40;51.84
36798;BME280;22748;8.426;99.512;2023-05-16T09:31:51;100496.22;;;34.28;51.89
36798;BME280;22748;8.426;99.512;2023-05-16T09:34:41;100509.22;;;34.26;52.41
36798;BME280;22748;8.426;99.512;2023-05-16T09:37:21;100516.69;;;34.18;52.68
36798;BME280;22748;8.426;99.512;2023-05-16T09:39:52;100522.09;;;34.18;52.46
36798;BME280;22748;8.426;99.512;2023-05-16T09:42:25;100504.44;;;34.16;52.32
36798;BME280;22748;8.426;99.512;2023-05-16T09:45:00;100491.88;;;34.27;52.45
36798;BME280;22748;8.426;99.512;2023-05-16T09:47:32;100470.81;;;34.34;52.19
36798;BME280;22748;8.426;99.512;2023-05-16T09:50:14;100459.72;;;34.35;52.01
36798;BME280;22748;8.426;99.512;2023-05-16T09:52:51;100478.94;;;34.34;52.18
36798;BME280;22748;8.426;99.512;2023-05-16T09:55:22;100495.72;;;34.31;52.40
36798;BME280;22748;8.426;99.512;2023-05-16T09:58:08;100497.03;;;34.28;52.43
36798;BME280;22748;8.426;99.512;2023-05-16T10:00:42;100499.25;;;34.31;52.42
36798;BME280;22748;8.426;99.512;2023-05-16T10:03:30;100511.81;;;34.20;53.00
36798;BME280;22748;8.426;99.512;2023-05-16T10:06:01;100509.38;;;34.02;53.73
36798;BME280;22748;8.426;99.512;2023-05-16T10:08:39;100534.50;;;33.97;54.05
36798;BME280;22748;8.426;99.512;2023-05-16T10:11:11;100554.28;;;33.98;53.83
36798;BME280;22748;8.426;99.512;2023-05-16T10:13:43;100579.00;;;34.01;53.64
36798;BME280;22748;8.426;99.512;2023-05-16T10:16:21;100587.84;;;33.97;54.18
36798;BME280;22748;8.426;99.512;2023-05-16T10:18:56;100610.09;;;33.99;54.20
36798;BME280;22748;8.426;99.512;2023-05-16T10:21:29;100626.34;;;33.99;54.49
36798;BME280;22748;8.426;99.512;2023-05-16T10:24:03;100624.97;;;33.96;54.71
36798;BME280;22748;8.426;99.512;2023-05-16T10:26:35;100600.81;;;33.95;54.48
36798;BME280;22748;8.426;99.512;2023-05-16T10:29:07;100573.47;;;33.96;54.41
36798;BME280;22748;8.426;99.512;2023-05-16T10:31:37;100560.09;;;33.90;54.41
36798;BME280;22748;8.426;99.512;2023-05-16T10:34:10;100562.16;;;33.83;54.40
36798;BME280;22748;8.426;99.512;2023-05-16T10:36:41;100572.06;;;33.77;54.32
36798;BME280;22748;8.426;99.512;2023-05-16T10:39:15;100585.88;;;33.75;54.48
36798;BME280;22748;8.426;99.512;2023-05-16T10:41:47;100607.09;;;33.55;54.37
36798;BME280;22748;8.426;99.512;2023-05-16T10:44:18;100625.94;;;33.62;54.44
36798;BME280;22748;8.426;99.512;2023-05-16T10:46:50;100643.88;;;33.79;54.19
36798;BME280;22748;8.426;99.512;2023-05-16T10:49:40;100633.47;;;33.88;54.23
36798;BME280;22748;8.426;99.512;2023-05-16T10:52:11;100631.19;;;33.97;54.10
36798;BME280;22748;8.426;99.512;2023-05-16T10:54:50;100638.94;;;34.05;54.68
36798;BME280;22748;8.426;99.512;2023-05-16T10:57:23;100651.03;;;34.14;54.49
36798;BME280;22748;8.426;99.512;2023-05-16T11:00:21;100658.19;;;34.20;54.03
36798;BME280;22748;8.426;99.512;2023-05-16T11:02:51;100644.75;;;34.26;54.13
36798;BME280;22748;8.426;99.512;2023-05-16T11:05:26;100650.75;;;34.28;53.83
36798;BME280;22748;8.426;99.512;2023-05-16T11:08:03;100682.44;;;34.27;53.38
36798;BME280;22748;8.426;99.512;2023-05-16T11:10:34;100697.22;;;34.19;53.59
36798;BME280;22748;8.426;99.512;2023-05-16T11:13:10;100690.34;;;34.00;54.05
36798;BME280;22748;8.426;99.512;2023-05-16T11:15:47;100683.84;;;34.01;54.26
36798;BME280;22748;8.426;99.512;2023-05-16T11:18:18;100697.44;;;33.89;54.53
36798;BME280;22748;8.426;99.512;2023-05-16T11:20:49;100696.03;;;33.87;54.69
36798;BME280;22748;8.426;99.512;2023-05-16T11:23:25;100703.22;;;33.93;54.76
36798;BME280;22748;8.426;99.512;2023-05-16T11:25:57;100702.00;;;34.00;54.99
36798;BME280;22748;8.426;99.512;2023-05-16T11:28:27;100699.50;;;33.99;55.22
36798;BME280;22748;8.426;99.512;2023-05-16T11:31:02;100694.09;;;33.99;55.09
36798;BME280;22748;8.426;99.512;2023-05-16T11:33:32;100699.81;;;33.86;55.79
36798;BME280;22748;8.426;99.512;2023-05-16T11:36:08;100698.59;;;33.65;56.19
36798;BME280;22748;8.426;99.512;2023-05-16T11:38:45;100713.78;;;33.54;56.47
36798;BME280;22748;8.426;99.512;2023-05-16T11:41:18;100717.44;;;33.59;56.40
36798;BME280;22748;8.426;99.512;2023-05-16T11:43:48;100722.00;;;33.71;56.51
36798;BME280;22748;8.426;99.512;2023-05-16T11:46:21;100719.88;;;33.73;56.38
36798;BME280;22748;8.426;99.512;2023-05-16T11:49:04;100723.06;;;33.70;56.12
36798;BME280;22748;8.426;99.512;2023-05-16T11:54:35;100702.94;;;33.54;56.21
36798;BME280;22748;8.426;99.512;2023-05-16T11:57:05;100702.69;;;33.55;56.22
36798;BME280;22748;8.426;99.512;2023-05-16T11:59:37;100706.97;;;33.39;56.10
36798;BME280;22748;8.426;99.512;2023-05-16T12:02:09;100712.28;;;33.23;56.55
36798;BME280;22748;8.426;99.512;2023-05-16T12:04:40;100725.00;;;33.22;56.81
36798;BME280;22748;8.426;99.512;2023-05-16T12:07:10;100746.28;;;33.30;56.85
36798;BME280;22748;8.426;99.512;2023-05-16T12:09:52;100762.78;;;33.40;56.79
36798;BME280;22748;8.426;99.512;2023-05-16T12:12:28;100768.88;;;33.48;56.54
36798;BME280;22748;8.426;99.512;2023-05-16T12:15:04;100779.34;;;33.56;56.52
36798;BME280;22748;8.426;99.512;2023-05-16T12:17:40;100769.09;;;33.58;56.37
36798;BME280;22748;8.426;99.512;2023-05-16T12:20:12;100771.69;;;33.53;56.36
36798;BME280;22748;8.426;99.512;2023-05-16T12:22:44;100777.59;;;33.50;55.99
36798;BME280;22748;8.426;99.512;2023-05-16T12:25:32;100784.31;;;33.47;56.12
36798;BME280;22748;8.426;99.512;2023-05-16T12:28:12;100787.97;;;33.41;56.23
36798;BME280;22748;8.426;99.512;2023-05-16T12:30:49;100795.25;;;33.40;56.38
36798;BME280;22748;8.426;99.512;2023-05-16T12:33:20;100806.28;;;33.27;56.59
36798;BME280;22748;8.426;99.512;2023-05-16T12:35:51;100815.97;;;33.23;56.56
36798;BME280;22748;8.426;99.512;2023-05-16T12:38:22;100820.31;;;33.24;56.44
36798;BME280;22748;8.426;99.512;2023-05-16T12:40:57;100835.03;;;33.28;56.45
36798;BME280;22748;8.426;99.512;2023-05-16T12:43:29;100839.38;;;33.29;56.59
36798;BME280;22748;8.426;99.512;2023-05-16T12:46:00;100833.50;;;33.32;56.85
36798;BME280;22748;8.426;99.512;2023-05-16T12:48:32;100832.44;;;33.33;56.88
36798;BME280;22748;8.426;99.512;2023-05-16T12:51:19;100831.97;;;33.36;56.62
36798;BME280;22748;8.426;99.512;2023-05-16T12:53:50;100829.00;;;33.38;56.61
36798;BME280;22748;8.426;99.512;2023-05-16T12:56:23;100832.44;;;33.33;56.72
36798;BME280;22748;8.426;99.512;2023-05-16T12:58:59;100847.97;;;33.26;56.52
36798;BME280;22748;8.426;99.512;2023-05-16T13:01:31;100851.50;;;33.15;56.84
36798;BME280;22748;8.426;99.512;2023-05-16T13:04:02;100860.59;;;33.02;57.19
36798;BME280;22748;8.426;99.512;2023-05-16T13:06:32;100876.47;;;32.98;57.64
36798;BME280;22748;8.426;99.512;2023-05-16T13:09:04;100879.44;;;32.67;57.94
36798;BME280;22748;8.426;99.512;2023-05-16T13:11:37;100876.56;;;32.62;58.33
36798;BME280;22748;8.426;99.512;2023-05-16T13:14:08;100874.59;;;32.50;58.72
36798;BME280;22748;8.426;99.512;2023-05-16T13:16:39;100877.03;;;32.40;59.27
36798;BME280;22748;8.426;99.512;2023-05-16T13:19:09;100876.13;;;32.46;58.84
36798;BME280;22748;8.426;99.512;2023-05-16T13:21:40;100886.88;;;32.53;58.85
36798;BME280;22748;8.426;99.512;2023-05-16T13:24:18;100885.66;;;32.49;58.97
36798;BME280;22748;8.426;99.512;2023-05-16T13:26:52;100895.81;;;32.35;59.44
36798;BME280;22748;8.426;99.512;2023-05-16T13:29:22;100916.53;;;32.04;60.54
36798;BME280;22748;8.426;99.512;2023-05-16T13:31:52;100936.25;;;31.80;61.13
36798;BME280;22748;8.426;99.512;2023-05-16T13:34:23;100935.53;;;31.66;61.34
36798;BME280;22748;8.426;99.512;2023-05-16T13:36:53;100930.81;;;31.61;61.11
36798;BME280;22748;8.426;99.512;2023-05-16T13:39:23;100916.16;;;31.94;60.64